Asolare — ZCDI3 — position and weather

sailwx.info

Track history (hours):
 
Tides and Currents Weather Stations Pressure Air Temp Water Temp Dewpoint Dewpoint Depression Visibility Wind Speed Wind Dir Waves Ship Positions

Asolare

Last reported at 2017-Jun-26 07:13 UTC. Time now 2017-Jun-26 08:52 UTC.
Position N 40°57' E 009°36'.

Length 47 m; draft 4.9 m.

Type: Sailing vessel. MMSI: 310413000.

Date/timePositionNaut miles runAvg speedWind from/ knotsBaromVisibWave heightAir tempDewpointWater temp
2017-Jun-26 07:13N 40°57' E 009°36'2 6.8
2017-Jun-26 06:57N 40°58' E 009°37'  
2017-Jun-23 12:37N 41°04' E 009°38'1 8.3
2017-Jun-23 12:30N 41°05' E 009°37'  
2017-Jun-20 18:19N 41°57' E 008°36'0 0.0
2017-Jun-20 17:52N 41°57' E 008°36'0 0.0
2017-Jun-20 17:10N 41°57' E 008°36'0 0.0
2017-Jun-20 12:25N 41°57' E 008°36'0 0.0
2017-Jun-20 11:55N 41°57' E 008°36'0 0.0
2017-Jun-20 11:26N 41°57' E 008°36'1 2.2
2017-Jun-20 11:00N 41°58' E 008°35'22 1.1
2017-Jun-19 14:36N 42°12' E 008°14'2 9.8
2017-Jun-19 14:27N 42°13' E 008°12'1310.8
2017-Jun-19 13:15N 42°19' E 008°27'30 0.7
2017-Jun-17 16:46N 41°51' E 008°42'12 9.5
2017-Jun-17 15:31N 41°39' E 008°42'0 9.7
2017-Jun-17 15:29N 41°39' E 008°42'5 9.6
2017-Jun-17 15:00N 41°35' E 008°45'4 8.4
2017-Jun-17 14:30N 41°31' E 008°48'38 1.8
2017-Jun-16 17:39N 41°10' E 009°30'3 9.8
2017-Jun-16 17:19N 41°08' E 009°34'310.3
2017-Jun-16 17:00N 41°05' E 009°36'510.3
2017-Jun-16 16:30N 41°01' E 009°40'8 8.1
2017-Jun-16 15:31N 40°55' E 009°33'0 8.5
2017-Jun-16 15:30N 40°55' E 009°32'  
Track history (hours):
 
Tides and Currents Weather Stations Pressure Air Temp Water Temp Dewpoint Dewpoint Depression Visibility Wind Speed Wind Dir Waves Ship Positions

Asolare

Last reported at 2017-Jun-26 07:13 UTC. Time now 2017-Jun-26 08:52 UTC.
Position N 40°57' E 009°36'.

Length 47 m; draft 4.9 m.

Type: Sailing vessel. MMSI: 310413000.

Date/timePositionNaut miles runAvg speedWind from/ knotsBaromVisibWave heightAir tempDewpointWater temp
2017-Jun-26 07:13N 40°57' E 009°36'2 6.8
2017-Jun-26 06:57N 40°58' E 009°37'  
2017-Jun-23 12:37N 41°04' E 009°38'1 8.3
2017-Jun-23 12:30N 41°05' E 009°37'  
2017-Jun-20 18:19N 41°57' E 008°36'0 0.0
2017-Jun-20 17:52N 41°57' E 008°36'0 0.0
2017-Jun-20 17:10N 41°57' E 008°36'0 0.0
2017-Jun-20 12:25N 41°57' E 008°36'0 0.0
2017-Jun-20 11:55N 41°57' E 008°36'0 0.0
2017-Jun-20 11:26N 41°57' E 008°36'1 2.2
2017-Jun-20 11:00N 41°58' E 008°35'22 1.1
2017-Jun-19 14:36N 42°12' E 008°14'2 9.8
2017-Jun-19 14:27N 42°13' E 008°12'1310.8
2017-Jun-19 13:15N 42°19' E 008°27'30 0.7
2017-Jun-17 16:46N 41°51' E 008°42'12 9.5
2017-Jun-17 15:31N 41°39' E 008°42'0 9.7
2017-Jun-17 15:29N 41°39' E 008°42'5 9.6
2017-Jun-17 15:00N 41°35' E 008°45'4 8.4
2017-Jun-17 14:30N 41°31' E 008°48'38 1.8
2017-Jun-16 17:39N 41°10' E 009°30'3 9.8
2017-Jun-16 17:19N 41°08' E 009°34'310.3
2017-Jun-16 17:00N 41°05' E 009°36'510.3
2017-Jun-16 16:30N 41°01' E 009°40'8 8.1
2017-Jun-16 15:31N 40°55' E 009°33'0 8.5
2017-Jun-16 15:30N 40°55' E 009°32'  

Dump ship's entire track history